createdAt,value
2022-12-19T00:00:18.850Z,81.00
2022-12-19T00:02:43.670Z,86.18
2022-12-19T00:05:11.292Z,80.95
2022-12-19T00:07:35.666Z,77.93
2022-12-19T00:10:00.053Z,91.35
2022-12-19T00:12:25.909Z,72.78
2022-12-19T00:14:50.433Z,86.30
2022-12-19T00:17:15.204Z,91.13
2022-12-19T00:19:39.568Z,81.57
2022-12-19T00:22:10.896Z,74.45
2022-12-19T00:24:35.819Z,70.85
2022-12-19T00:27:00.166Z,79.20
2022-12-19T00:29:26.646Z,78.65
2022-12-19T00:31:51.162Z,98.57
2022-12-19T00:34:15.844Z,74.80
2022-12-19T00:36:40.271Z,85.18
2022-12-19T00:39:07.972Z,86.10
2022-12-19T00:41:34.964Z,77.38
2022-12-19T00:44:01.194Z,81.28
2022-12-19T00:46:26.643Z,94.10
2022-12-19T00:48:51.138Z,84.85
2022-12-19T00:51:17.772Z,68.10
2022-12-19T00:53:42.412Z,86.88
2022-12-19T00:56:11.431Z,80.25
2022-12-19T00:58:36.561Z,73.55
2022-12-19T01:01:07.052Z,65.68
2022-12-19T01:03:31.484Z,85.43
2022-12-19T01:05:55.910Z,86.75
2022-12-19T01:08:21.320Z,86.53
2022-12-19T01:10:47.823Z,79.95
2022-12-19T01:13:12.948Z,83.88
2022-12-19T01:15:41.302Z,88.97
2022-12-19T01:18:05.873Z,81.82
2022-12-19T01:20:30.260Z,95.20
2022-12-19T01:22:54.750Z,92.75
2022-12-19T01:25:19.277Z,84.45
2022-12-19T01:27:43.795Z,91.85
2022-12-19T01:30:11.399Z,79.15
2022-12-19T01:32:36.986Z,59.55
2022-12-19T01:35:01.354Z,92.05
2022-12-19T01:37:28.347Z,75.15
2022-12-19T01:39:55.413Z,88.25
2022-12-19T01:42:24.286Z,74.95
2022-12-19T01:45:33.405Z,89.13
2022-12-19T01:50:30.670Z,75.20
2022-12-19T01:52:56.247Z,85.72
2022-12-19T01:55:22.007Z,52.53
2022-12-19T01:57:48.310Z,96.40
2022-12-19T02:00:14.175Z,84.30
2022-12-19T02:02:44.807Z,71.85
2022-12-19T02:05:10.193Z,80.15
2022-12-19T02:07:36.004Z,87.50
2022-12-19T02:10:01.113Z,74.80
2022-12-19T02:12:37.394Z,68.20
2022-12-19T02:15:05.356Z,81.00
2022-12-19T02:17:40.072Z,81.22
2022-12-19T02:20:50.838Z,80.45
2022-12-19T02:23:54.247Z,76.53
2022-12-19T02:26:44.156Z,83.63
2022-12-19T02:29:33.507Z,79.45
2022-12-19T02:32:06.260Z,86.50
2022-12-19T02:34:42.749Z,72.45
2022-12-19T02:37:13.396Z,71.03
2022-12-19T02:39:45.635Z,73.13
2022-12-19T02:42:13.244Z,70.68
2022-12-19T02:44:44.315Z,62.40
2022-12-19T02:47:11.034Z,86.15
2022-12-19T02:49:37.582Z,58.30
2022-12-19T02:52:11.002Z,80.10
2022-12-19T02:54:35.588Z,79.00
2022-12-19T02:57:11.250Z,65.88
2022-12-19T02:59:50.002Z,52.72
2022-12-19T03:02:28.326Z,65.82
2022-12-19T03:05:00.701Z,67.95
2022-12-19T03:07:31.114Z,66.13
2022-12-19T03:10:02.262Z,84.70
2022-12-19T03:12:34.007Z,57.47
2022-12-19T03:15:00.267Z,81.90
2022-12-19T03:17:27.398Z,86.45
2022-12-19T03:19:51.864Z,67.93
2022-12-19T03:22:16.338Z,69.95
2022-12-19T03:24:40.929Z,79.25
2022-12-19T03:27:10.113Z,84.30
2022-12-19T03:29:39.571Z,82.93
2022-12-19T03:32:09.154Z,81.63
2022-12-19T03:34:41.631Z,72.03
2022-12-19T03:37:09.257Z,90.07
2022-12-19T03:39:35.631Z,75.68
2022-12-19T03:42:19.667Z,74.13
2022-12-19T03:44:44.981Z,83.72
2022-12-19T03:47:14.691Z,78.10
2022-12-19T03:49:40.847Z,70.97
2022-12-19T03:52:14.977Z,76.47
2022-12-19T03:54:43.811Z,59.42
2022-12-19T03:57:14.859Z,84.95
2022-12-19T03:59:44.342Z,76.95
2022-12-19T04:02:10.037Z,88.80
2022-12-19T04:04:39.374Z,69.03
2022-12-19T04:07:06.793Z,78.30
2022-12-19T04:09:33.437Z,66.20
2022-12-19T04:12:03.457Z,80.60
2022-12-19T04:14:31.671Z,79.05
2022-12-19T04:17:01.887Z,70.70
2022-12-19T04:19:32.071Z,44.42
2022-12-19T04:22:01.562Z,79.38
2022-12-19T04:24:31.919Z,68.22
2022-12-19T04:26:58.741Z,61.22
2022-12-19T04:29:24.831Z,65.15
2022-12-19T04:31:50.130Z,57.30
2022-12-19T04:34:18.558Z,75.40
2022-12-19T04:36:42.991Z,59.58
2022-12-19T04:39:07.469Z,53.35
2022-12-19T04:41:33.390Z,53.85
2022-12-19T04:43:57.793Z,45.40
2022-12-19T04:46:22.198Z,38.47
2022-12-19T04:48:46.848Z,69.20
2022-12-19T04:51:11.462Z,71.05
2022-12-19T04:53:36.871Z,58.67
2022-12-19T04:56:05.645Z,63.10
2022-12-19T04:58:32.186Z,70.05
2022-12-19T05:00:56.596Z,61.65
2022-12-19T05:03:21.096Z,47.42
2022-12-19T05:05:45.586Z,50.35
2022-12-19T05:08:09.973Z,59.22
2022-12-19T05:10:34.536Z,45.25
2022-12-19T05:12:58.887Z,53.03
2022-12-19T05:15:24.801Z,63.00
2022-12-19T05:17:49.135Z,43.00
2022-12-19T05:20:13.832Z,53.05
2022-12-19T05:22:38.561Z,60.15
2022-12-19T05:25:03.019Z,62.10
2022-12-19T05:27:27.512Z,61.03
2022-12-19T05:29:52.086Z,60.53
2022-12-19T05:32:17.999Z,50.08
2022-12-19T05:34:42.547Z,61.08
2022-12-19T05:37:06.876Z,61.88
2022-12-19T05:39:31.450Z,59.97
2022-12-19T05:41:55.846Z,58.20
2022-12-19T05:44:20.891Z,67.10
2022-12-19T05:46:45.345Z,60.85
2022-12-19T05:49:11.187Z,59.83
2022-12-19T05:51:35.876Z,57.55
2022-12-19T05:54:02.249Z,63.03
2022-12-19T05:56:26.651Z,56.42
2022-12-19T05:58:51.770Z,53.22
2022-12-19T06:01:18.984Z,56.15
2022-12-19T06:03:44.920Z,51.50
2022-12-19T06:06:13.447Z,45.75
2022-12-19T06:08:39.435Z,57.17
2022-12-19T06:11:05.273Z,53.58
2022-12-19T06:13:30.784Z,59.03
2022-12-19T06:15:59.805Z,63.63
2022-12-19T06:18:24.360Z,61.20
2022-12-19T06:20:57.937Z,61.38
2022-12-19T06:23:24.151Z,58.55
2022-12-19T06:25:48.840Z,60.25
2022-12-19T06:28:15.529Z,53.75
2022-12-19T06:30:40.101Z,57.00
2022-12-19T06:33:04.661Z,48.83
2022-12-19T06:35:29.067Z,53.00
2022-12-19T06:38:00.788Z,43.13
2022-12-19T06:40:44.557Z,60.87
2022-12-19T06:43:09.118Z,59.25
2022-12-19T06:45:33.511Z,58.72
2022-12-19T06:47:58.100Z,56.80
2022-12-19T06:50:25.078Z,58.88
2022-12-19T06:52:52.542Z,50.63
2022-12-19T06:55:17.276Z,57.95
2022-12-19T06:57:46.601Z,60.95
2022-12-19T07:00:13.148Z,59.72
2022-12-19T07:02:38.718Z,45.55
2022-12-19T07:05:07.560Z,55.60
2022-12-19T07:07:32.509Z,40.20
2022-12-19T07:09:57.379Z,67.50
2022-12-19T07:12:22.463Z,68.25
2022-12-19T07:14:53.186Z,40.03
2022-12-19T07:17:19.533Z,62.33
2022-12-19T07:19:44.169Z,62.42
2022-12-19T07:22:09.728Z,70.22
2022-12-19T07:24:36.610Z,62.08
2022-12-19T07:27:01.276Z,44.70
2022-12-19T07:29:28.329Z,46.85
2022-12-19T07:31:54.421Z,56.45
2022-12-19T07:34:19.145Z,57.22
2022-12-19T07:36:44.280Z,66.45
2022-12-19T07:39:08.909Z,61.92
2022-12-19T07:41:33.871Z,62.88
2022-12-19T07:44:00.465Z,64.03
2022-12-19T07:46:25.215Z,60.75
2022-12-19T07:48:51.357Z,61.75
2022-12-19T07:51:16.982Z,58.63
2022-12-19T07:53:41.720Z,68.07
2022-12-19T07:56:06.836Z,62.22
2022-12-19T07:58:32.477Z,68.50
2022-12-19T08:00:58.419Z,53.00
2022-12-19T08:03:23.585Z,57.42
2022-12-19T08:05:50.891Z,52.60
2022-12-19T08:08:15.427Z,46.22
2022-12-19T08:10:41.525Z,52.22
2022-12-19T08:13:06.136Z,64.88
2022-12-19T08:15:30.824Z,63.70
2022-12-19T08:17:56.219Z,59.45
2022-12-19T08:20:21.076Z,50.20
2022-12-19T08:22:47.125Z,58.13
2022-12-19T08:25:11.949Z,64.95
2022-12-19T08:27:37.632Z,61.05
2022-12-19T08:30:02.346Z,62.08
2022-12-19T08:32:29.117Z,59.35
2022-12-19T08:34:54.971Z,70.68
2022-12-19T08:37:19.439Z,62.50
2022-12-19T08:39:45.719Z,61.20
2022-12-19T08:42:10.182Z,66.18
2022-12-19T08:44:34.728Z,62.90
2022-12-19T08:46:59.243Z,73.10
2022-12-19T08:49:23.739Z,54.42
2022-12-19T08:51:48.658Z,78.93
2022-12-19T08:54:13.404Z,44.45
2022-12-19T08:56:46.021Z,58.90
2022-12-19T08:59:11.120Z,63.70
2022-12-19T09:01:37.922Z,60.22
2022-12-19T09:05:03.677Z,52.85
2022-12-19T09:06:47.136Z,55.47
2022-12-19T09:09:11.649Z,61.70
2022-12-19T09:11:46.715Z,56.28
2022-12-19T09:14:20.915Z,65.25
2022-12-19T09:16:46.214Z,65.70
2022-12-19T09:19:15.568Z,72.85
2022-12-19T09:21:40.027Z,60.90
2022-12-19T09:24:07.915Z,69.88
2022-12-19T09:26:33.661Z,68.05
2022-12-19T09:28:59.445Z,69.53
2022-12-19T09:31:27.340Z,57.53
2022-12-19T09:33:52.945Z,80.70
2022-12-19T09:36:19.320Z,70.82
2022-12-19T09:38:44.185Z,69.05
2022-12-19T09:41:34.395Z,67.40
2022-12-19T09:44:09.636Z,43.75
2022-12-19T09:46:48.960Z,49.80
2022-12-19T09:49:19.133Z,72.10
2022-12-19T09:51:51.894Z,58.17
2022-12-19T09:54:23.580Z,64.10
2022-12-19T09:56:50.323Z,53.20
2022-12-19T09:59:22.590Z,42.00
2022-12-19T10:02:03.003Z,62.90
2022-12-19T10:04:31.065Z,74.13
2022-12-19T10:07:08.761Z,55.58
2022-12-19T10:12:00.233Z,68.85
2022-12-19T10:12:50.814Z,70.65
2022-12-19T10:15:25.453Z,74.40
2022-12-19T10:18:24.816Z,59.15
2022-12-19T10:20:59.654Z,72.45
2022-12-19T10:23:51.479Z,75.82
2022-12-19T10:26:20.834Z,61.13
2022-12-19T10:29:00.699Z,65.90
2022-12-19T10:31:34.440Z,79.03
2022-12-19T10:34:08.471Z,61.88
2022-12-19T10:39:34.655Z,74.32
2022-12-19T10:42:09.633Z,63.95
2022-12-19T10:44:39.357Z,70.00
2022-12-19T10:47:04.588Z,54.58
2022-12-19T10:49:30.956Z,34.08
2022-12-19T10:52:00.483Z,74.30
2022-12-19T10:54:33.404Z,61.28
2022-12-19T10:57:19.587Z,73.07
2022-12-19T10:59:56.825Z,76.85
2022-12-19T11:02:35.227Z,77.78
2022-12-19T11:05:01.651Z,72.88
2022-12-19T11:07:29.325Z,86.65
2022-12-19T11:10:54.420Z,49.63
2022-12-19T11:16:40.538Z,78.32
2022-12-19T11:22:19.066Z,65.53
2022-12-19T11:25:50.032Z,80.32
2022-12-19T11:29:32.575Z,76.82
2022-12-19T11:29:46.780Z,77.97
2022-12-19T11:29:46.780Z,68.10
2022-12-19T11:35:18.190Z,72.25
2022-12-19T11:37:55.080Z,68.38
2022-12-19T11:40:29.741Z,81.97
2022-12-19T11:43:42.026Z,67.35
2022-12-19T11:45:52.887Z,72.25
2022-12-19T11:48:21.434Z,77.15
2022-12-19T11:50:57.317Z,97.82
2022-12-19T11:53:30.091Z,77.65
2022-12-19T11:56:00.956Z,51.03
2022-12-19T11:58:29.600Z,81.80
2022-12-19T12:01:03.217Z,83.35
2022-12-19T12:03:59.216Z,66.55
2022-12-19T12:06:33.537Z,77.18
2022-12-19T12:11:34.124Z,65.15
2022-12-19T12:17:01.004Z,65.75
2022-12-19T12:24:18.205Z,69.82
2022-12-19T12:31:06.986Z,72.13
2022-12-19T12:31:13.893Z,74.13
2022-12-19T12:31:42.405Z,70.28
2022-12-19T12:31:49.209Z,59.58
2022-12-19T12:31:50.061Z,75.25
2022-12-19T12:35:47.069Z,60.88
2022-12-19T12:37:58.847Z,82.43
2022-12-19T12:38:23.447Z,70.15
2022-12-19T12:41:10.591Z,72.03
2022-12-19T12:43:56.327Z,74.63
2022-12-19T12:46:24.629Z,79.25
2022-12-19T12:48:55.163Z,76.22
2022-12-19T12:51:21.056Z,69.93
2022-12-19T12:53:48.334Z,73.15
2022-12-19T12:56:17.997Z,71.40
2022-12-19T12:59:07.097Z,70.60
2022-12-19T13:01:36.820Z,82.15
2022-12-19T13:06:35.361Z,73.80
2022-12-19T13:09:19.139Z,82.75
2022-12-19T13:12:06.866Z,76.72
2022-12-19T13:14:49.051Z,73.32
2022-12-19T13:17:18.922Z,81.72
2022-12-19T13:19:56.387Z,73.07
2022-12-19T13:22:24.370Z,71.20
2022-12-19T13:24:51.327Z,69.07
2022-12-19T13:27:36.423Z,71.22
2022-12-19T13:30:17.359Z,70.72
2022-12-19T13:33:10.536Z,73.55
2022-12-19T13:37:55.665Z,69.70
2022-12-19T13:39:55.159Z,79.72
2022-12-19T13:41:45.588Z,82.35
2022-12-19T13:44:12.299Z,72.88
2022-12-19T13:46:43.013Z,83.22
2022-12-19T13:49:12.015Z,74.60
2022-12-19T13:51:48.101Z,74.97
2022-12-19T13:54:24.837Z,75.10
2022-12-19T13:56:49.591Z,81.68
2022-12-19T13:59:14.814Z,74.20
2022-12-19T14:01:42.754Z,74.85
2022-12-19T14:04:10.828Z,76.18
2022-12-19T14:06:41.654Z,68.13
2022-12-19T14:11:29.549Z,74.32
2022-12-19T14:12:13.931Z,78.22
2022-12-19T14:15:13.578Z,75.55
2022-12-19T14:17:40.002Z,77.10
2022-12-19T14:22:06.637Z,72.32
2022-12-19T14:23:03.508Z,68.88
2022-12-19T14:28:17.528Z,70.30
2022-12-19T14:28:30.324Z,71.82
2022-12-19T14:30:58.513Z,77.53
2022-12-19T14:33:43.423Z,77.05
2022-12-19T14:36:18.684Z,86.35
2022-12-19T14:39:25.721Z,75.68
2022-12-19T14:42:02.594Z,98.65
2022-12-19T14:51:09.061Z,80.90
2022-12-19T14:52:50.879Z,76.78
2022-12-19T14:54:31.517Z,87.90
2022-12-19T14:54:40.845Z,79.00
2022-12-19T14:58:57.407Z,79.95
2022-12-19T15:01:25.090Z,77.70
2022-12-19T15:04:49.633Z,79.22
2022-12-19T15:07:09.739Z,70.18
2022-12-19T15:10:57.978Z,70.05
2022-12-19T15:14:49.065Z,76.28
2022-12-19T15:15:41.327Z,69.70
2022-12-19T15:18:21.206Z,69.50
2022-12-19T15:20:45.798Z,82.72
2022-12-19T15:23:15.263Z,83.63
2022-12-19T15:26:03.223Z,81.72
2022-12-19T15:28:38.196Z,77.72
2022-12-19T15:31:11.178Z,74.32
2022-12-19T15:33:40.716Z,80.72
2022-12-19T15:36:12.899Z,76.22
2022-12-19T15:38:38.693Z,74.57
2022-12-19T15:41:06.312Z,73.22
2022-12-19T15:44:02.984Z,73.20
2022-12-19T15:46:21.180Z,70.15
2022-12-19T15:48:49.562Z,77.10
2022-12-19T15:51:14.784Z,95.88
2022-12-19T15:53:41.564Z,85.88
2022-12-19T15:56:07.194Z,99.78
2022-12-19T15:58:31.891Z,86.18
2022-12-19T16:01:03.311Z,79.20
2022-12-19T16:03:28.486Z,73.22
2022-12-19T16:05:53.358Z,75.32
2022-12-19T16:08:20.245Z,77.43
2022-12-19T16:10:50.474Z,85.07
2022-12-19T16:13:21.764Z,75.97
2022-12-19T16:15:46.922Z,78.95
2022-12-19T16:18:15.488Z,78.75
2022-12-19T16:23:08.003Z,72.95
2022-12-19T16:25:36.740Z,78.10
2022-12-19T16:28:06.187Z,82.75
2022-12-19T16:30:32.711Z,103.95
2022-12-19T16:32:57.416Z,94.75
2022-12-19T16:35:40.353Z,108.03
2022-12-19T16:38:08.120Z,102.68
2022-12-19T16:40:32.606Z,75.55
2022-12-19T16:43:04.614Z,74.63
2022-12-19T16:45:30.605Z,83.40
2022-12-19T16:47:55.083Z,80.22
2022-12-19T16:50:24.110Z,88.75
2022-12-19T16:52:48.651Z,77.80
2022-12-19T16:55:13.262Z,82.85
2022-12-19T16:57:37.740Z,77.53
2022-12-19T17:00:02.538Z,80.10
2022-12-19T17:02:47.257Z,85.18
2022-12-19T17:05:21.391Z,90.25
2022-12-19T17:07:46.082Z,80.10
2022-12-19T17:10:11.559Z,87.07
2022-12-19T17:12:39.770Z,82.95
2022-12-19T17:15:06.634Z,84.13
2022-12-19T17:17:31.144Z,83.45
2022-12-19T17:19:57.722Z,70.57
2022-12-19T17:22:22.658Z,85.07
2022-12-19T17:24:48.198Z,80.32
2022-12-19T17:27:12.738Z,75.07
2022-12-19T17:29:37.191Z,78.05
2022-12-19T17:32:01.791Z,77.28
2022-12-19T17:34:29.932Z,85.32
2022-12-19T17:36:56.067Z,77.60
2022-12-19T17:39:21.889Z,68.68
2022-12-19T17:41:46.403Z,88.38
2022-12-19T17:44:11.691Z,76.00
2022-12-19T17:46:39.198Z,80.88
2022-12-19T17:49:04.123Z,75.90
2022-12-19T17:51:28.726Z,75.97
2022-12-19T17:53:54.534Z,80.15
2022-12-19T17:56:21.378Z,80.13
2022-12-19T17:58:46.199Z,81.75
2022-12-19T18:01:21.557Z,78.22
2022-12-19T18:03:47.633Z,79.28
2022-12-19T18:06:12.663Z,78.38
2022-12-19T18:08:37.332Z,64.88
2022-12-19T18:11:05.500Z,78.07
2022-12-19T18:13:31.154Z,79.13
2022-12-19T18:15:59.347Z,76.03
2022-12-19T18:18:30.284Z,79.43
2022-12-19T18:20:55.381Z,80.88
2022-12-19T18:23:22.651Z,71.55
2022-12-19T18:25:47.776Z,89.38
2022-12-19T18:28:16.367Z,82.35
2022-12-19T18:30:41.921Z,86.97
2022-12-19T18:33:08.070Z,91.38
2022-12-19T18:35:36.268Z,90.22
2022-12-19T18:38:03.664Z,83.28
2022-12-19T18:40:31.648Z,80.10
2022-12-19T18:42:56.506Z,87.38
2022-12-19T18:45:24.485Z,83.88
2022-12-19T18:47:52.795Z,77.22
2022-12-19T18:50:20.838Z,76.57
2022-12-19T18:52:45.953Z,93.90
2022-12-19T18:55:18.765Z,88.28
2022-12-19T18:57:45.047Z,99.97
2022-12-19T19:00:10.835Z,83.72
2022-12-19T19:02:37.221Z,89.32
2022-12-19T19:05:01.811Z,85.13
2022-12-19T19:07:28.734Z,86.97
2022-12-19T19:09:53.293Z,84.45
2022-12-19T19:12:44.656Z,81.30
2022-12-19T19:15:10.648Z,76.72
2022-12-19T19:17:37.050Z,100.72
2022-12-19T19:20:02.391Z,89.97
2022-12-19T19:22:28.352Z,88.07
2022-12-19T19:24:52.846Z,87.15
2022-12-19T19:27:17.234Z,80.85
2022-12-19T19:29:41.664Z,82.60
2022-12-19T19:32:06.728Z,84.43
2022-12-19T19:34:36.562Z,83.55
2022-12-19T19:37:04.055Z,77.10
2022-12-19T19:39:29.179Z,77.60
2022-12-19T19:41:53.820Z,69.60
2022-12-19T19:44:23.566Z,84.50
2022-12-19T19:46:48.791Z,82.40
2022-12-19T19:49:13.670Z,77.90
2022-12-19T19:51:39.553Z,80.60
2022-12-19T19:54:04.141Z,84.68
2022-12-19T19:56:28.876Z,90.25
2022-12-19T19:58:55.373Z,81.70
2022-12-19T20:01:20.088Z,82.22
2022-12-19T20:03:45.439Z,88.53
2022-12-19T20:06:10.344Z,83.38
2022-12-19T20:08:39.957Z,85.47
2022-12-19T20:11:05.222Z,85.57
2022-12-19T20:13:32.815Z,83.80
2022-12-19T20:16:03.714Z,82.63
2022-12-19T20:18:28.612Z,88.13
2022-12-19T20:20:53.373Z,91.88
2022-12-19T20:23:18.031Z,98.78
2022-12-19T20:25:43.899Z,83.43
2022-12-19T20:28:08.360Z,88.43
2022-12-19T20:30:33.135Z,84.68
2022-12-19T20:32:57.600Z,78.60
2022-12-19T20:35:22.014Z,97.10
2022-12-19T20:37:46.552Z,87.25
2022-12-19T20:40:13.031Z,86.32
2022-12-19T20:42:39.045Z,86.18
2022-12-19T20:45:03.588Z,85.78
2022-12-19T20:47:28.771Z,80.93
2022-12-19T20:49:53.223Z,84.85
2022-12-19T20:52:17.839Z,92.85
2022-12-19T20:54:42.659Z,85.28
2022-12-19T20:57:07.290Z,87.13
2022-12-19T20:59:33.449Z,92.05
2022-12-19T21:02:00.655Z,85.82
2022-12-19T21:04:25.572Z,83.38
2022-12-19T21:06:50.243Z,94.72
2022-12-19T21:09:14.843Z,98.35
2022-12-19T21:11:40.111Z,84.03
2022-12-19T21:14:06.089Z,94.60
2022-12-19T21:16:32.243Z,90.82
2022-12-19T21:18:56.961Z,87.68
2022-12-19T21:21:24.198Z,87.40
2022-12-19T21:23:49.480Z,86.20
2022-12-19T21:26:14.349Z,95.30
2022-12-19T21:28:39.366Z,92.53
2022-12-19T21:31:06.644Z,95.95
2022-12-19T21:33:33.267Z,81.60
2022-12-19T21:35:58.070Z,104.22
2022-12-19T21:38:23.389Z,102.78
2022-12-19T21:40:48.197Z,85.38
2022-12-19T21:43:12.925Z,109.10
2022-12-19T21:45:37.526Z,94.15
2022-12-19T21:48:02.405Z,96.65
2022-12-19T21:50:28.622Z,98.47
2022-12-19T21:52:55.919Z,98.40
2022-12-19T21:55:22.070Z,104.40
2022-12-19T21:57:46.988Z,99.25
2022-12-19T22:00:13.743Z,92.70
2022-12-19T22:02:39.033Z,96.70
2022-12-19T22:05:03.768Z,97.63
2022-12-19T22:07:29.908Z,88.28
2022-12-19T22:09:54.385Z,93.65
2022-12-19T22:12:19.282Z,96.90
2022-12-19T22:14:44.979Z,94.72
2022-12-19T22:17:09.590Z,96.32
2022-12-19T22:19:34.112Z,95.53
2022-12-19T22:22:00.988Z,138.13
2022-12-19T22:24:26.990Z,124.68
2022-12-19T22:26:52.119Z,111.90
2022-12-19T22:29:17.710Z,104.90
2022-12-19T22:31:43.394Z,100.32
2022-12-19T22:34:10.414Z,106.13
2022-12-19T22:36:37.118Z,109.50
2022-12-19T22:39:03.658Z,107.25
2022-12-19T22:41:29.960Z,100.00
2022-12-19T22:43:55.078Z,98.10
2022-12-19T22:46:21.776Z,95.15
2022-12-19T22:48:47.997Z,90.85
2022-12-19T22:51:13.303Z,95.38
2022-12-19T22:53:38.761Z,94.05
2022-12-19T22:56:06.475Z,109.20
2022-12-19T22:58:32.452Z,110.07
2022-12-19T23:00:57.968Z,107.32
2022-12-19T23:03:22.768Z,118.95
2022-12-19T23:05:51.916Z,113.43
2022-12-19T23:08:16.872Z,122.35
2022-12-19T23:10:41.621Z,112.63
2022-12-19T23:13:06.234Z,113.85
2022-12-19T23:15:32.499Z,108.38
2022-12-19T23:17:57.043Z,99.55
2022-12-19T23:20:21.591Z,90.65
2022-12-19T23:22:46.255Z,93.30
2022-12-19T23:25:12.107Z,99.25
2022-12-19T23:27:37.777Z,108.07
2022-12-19T23:30:02.907Z,101.18
2022-12-19T23:32:29.711Z,103.13
2022-12-19T23:34:54.208Z,105.47
2022-12-19T23:37:18.740Z,105.47
2022-12-19T23:39:43.455Z,104.68
2022-12-19T23:42:08.247Z,97.88
2022-12-19T23:44:33.311Z,108.22
2022-12-19T23:47:03.091Z,104.18
2022-12-19T23:49:30.240Z,109.57
2022-12-19T23:51:54.763Z,106.90
2022-12-19T23:54:19.617Z,106.35
2022-12-19T23:56:43.989Z,99.45
2022-12-19T23:59:08.548Z,105.93
